sensor_id;sensor_type;location;lat;lon;timestamp;pressure;altitude;pressure_sealevel;temperature
70050;BMP180;57391;51.306;22.680;2024-02-21T00:00:55;100033.60;;;6.74
70050;BMP180;57391;51.306;22.680;2024-02-21T00:03:17;100029.00;;;6.70
70050;BMP180;57391;51.306;22.680;2024-02-21T00:05:19;100025.20;;;6.70
70050;BMP180;57391;51.306;22.680;2024-02-21T00:07:20;100029.20;;;6.70
70050;BMP180;57391;51.306;22.680;2024-02-21T00:09:22;100032.80;;;6.72
70050;BMP180;57391;51.306;22.680;2024-02-21T00:11:24;100036.60;;;6.70
70050;BMP180;57391;51.306;22.680;2024-02-21T00:13:25;100036.60;;;6.70
70050;BMP180;57391;51.306;22.680;2024-02-21T00:15:27;100037.00;;;6.70
70050;BMP180;57391;51.306;22.680;2024-02-21T00:17:29;100038.60;;;6.70
70050;BMP180;57391;51.306;22.680;2024-02-21T00:19:31;100027.20;;;6.70
70050;BMP180;57391;51.306;22.680;2024-02-21T00:21:33;100030.40;;;6.70
70050;BMP180;57391;51.306;22.680;2024-02-21T00:23:34;100027.00;;;6.70
70050;BMP180;57391;51.306;22.680;2024-02-21T00:25:36;100028.00;;;6.70
70050;BMP180;57391;51.306;22.680;2024-02-21T00:27:38;100023.60;;;6.70
70050;BMP180;57391;51.306;22.680;2024-02-21T00:29:43;100028.20;;;6.70
70050;BMP180;57391;51.306;22.680;2024-02-21T00:31:45;100023.80;;;6.70
70050;BMP180;57391;51.306;22.680;2024-02-21T00:33:46;100025.40;;;6.70
70050;BMP180;57391;51.306;22.680;2024-02-21T00:35:48;100023.00;;;6.70
70050;BMP180;57391;51.306;22.680;2024-02-21T00:37:51;100016.80;;;6.70
70050;BMP180;57391;51.306;22.680;2024-02-21T00:39:54;100021.00;;;6.70
70050;BMP180;57391;51.306;22.680;2024-02-21T00:41:56;100024.80;;;6.68
70050;BMP180;57391;51.306;22.680;2024-02-21T00:43:57;100024.40;;;6.70
70050;BMP180;57391;51.306;22.680;2024-02-21T00:45:59;100026.60;;;6.66
70050;BMP180;57391;51.306;22.680;2024-02-21T00:48:01;100024.20;;;6.66
70050;BMP180;57391;51.306;22.680;2024-02-21T00:50:03;100024.80;;;6.68
70050;BMP180;57391;51.306;22.680;2024-02-21T00:52:04;100025.80;;;6.62
70050;BMP180;57391;51.306;22.680;2024-02-21T00:54:06;100028.20;;;6.60
70050;BMP180;57391;51.306;22.680;2024-02-21T00:56:08;100031.20;;;6.60
70050;BMP180;57391;51.306;22.680;2024-02-21T00:58:10;100024.40;;;6.60
70050;BMP180;57391;51.306;22.680;2024-02-21T01:00:12;100023.80;;;6.60
70050;BMP180;57391;51.306;22.680;2024-02-21T01:02:14;100024.80;;;6.60
70050;BMP180;57391;51.306;22.680;2024-02-21T01:04:16;100021.80;;;6.60
70050;BMP180;57391;51.306;22.680;2024-02-21T01:06:18;100018.80;;;6.60
70050;BMP180;57391;51.306;22.680;2024-02-21T01:08:19;100019.20;;;6.56
70050;BMP180;57391;51.306;22.680;2024-02-21T01:10:21;100020.80;;;6.52
70050;BMP180;57391;51.306;22.680;2024-02-21T01:12:24;100020.00;;;6.50
70050;BMP180;57391;51.306;22.680;2024-02-21T01:14:26;100015.20;;;6.50
70050;BMP180;57391;51.306;22.680;2024-02-21T01:16:28;100012.20;;;6.50
70050;BMP180;57391;51.306;22.680;2024-02-21T01:18:29;100012.00;;;6.50
70050;BMP180;57391;51.306;22.680;2024-02-21T01:20:31;100010.60;;;6.50
70050;BMP180;57391;51.306;22.680;2024-02-21T01:22:33;100015.00;;;6.42
70050;BMP180;57391;51.306;22.680;2024-02-21T01:24:34;100012.80;;;6.40
70050;BMP180;57391;51.306;22.680;2024-02-21T01:26:36;100016.00;;;6.40
70050;BMP180;57391;51.306;22.680;2024-02-21T01:28:38;100014.00;;;6.40
70050;BMP180;57391;51.306;22.680;2024-02-21T01:30:40;100008.00;;;6.36
70050;BMP180;57391;51.306;22.680;2024-02-21T01:32:42;100016.40;;;6.30
70050;BMP180;57391;51.306;22.680;2024-02-21T01:34:43;100016.00;;;6.30
70050;BMP180;57391;51.306;22.680;2024-02-21T01:36:45;100011.80;;;6.30
70050;BMP180;57391;51.306;22.680;2024-02-21T01:38:47;100014.00;;;6.26
70050;BMP180;57391;51.306;22.680;2024-02-21T01:40:49;100017.60;;;6.20
70050;BMP180;57391;51.306;22.680;2024-02-21T01:42:50;100016.40;;;6.20
70050;BMP180;57391;51.306;22.680;2024-02-21T01:44:55;100010.80;;;6.22
70050;BMP180;57391;51.306;22.680;2024-02-21T01:46:56;100013.80;;;6.20
70050;BMP180;57391;51.306;22.680;2024-02-21T01:48:59;100016.40;;;6.20
70050;BMP180;57391;51.306;22.680;2024-02-21T01:51:04;100015.60;;;6.20
70050;BMP180;57391;51.306;22.680;2024-02-21T01:53:07;100018.60;;;6.20
70050;BMP180;57391;51.306;22.680;2024-02-21T01:55:10;100021.20;;;6.20
70050;BMP180;57391;51.306;22.680;2024-02-21T01:57:15;100021.40;;;6.20
70050;BMP180;57391;51.306;22.680;2024-02-21T01:59:17;100022.00;;;6.20
70050;BMP180;57391;51.306;22.680;2024-02-21T02:01:20;100021.00;;;6.20
70050;BMP180;57391;51.306;22.680;2024-02-21T02:03:22;100023.80;;;6.20
70050;BMP180;57391;51.306;22.680;2024-02-21T02:05:24;100025.60;;;6.20
70050;BMP180;57391;51.306;22.680;2024-02-21T02:07:25;100024.00;;;6.20
70050;BMP180;57391;51.306;22.680;2024-02-21T02:09:27;100026.40;;;6.14
70050;BMP180;57391;51.306;22.680;2024-02-21T02:11:32;100029.20;;;6.10
70050;BMP180;57391;51.306;22.680;2024-02-21T02:13:33;100032.00;;;6.10
70050;BMP180;57391;51.306;22.680;2024-02-21T02:15:46;100031.40;;;6.10
70050;BMP180;57391;51.306;22.680;2024-02-21T02:17:48;100028.20;;;6.10
70050;BMP180;57391;51.306;22.680;2024-02-21T02:19:50;100037.00;;;6.10
70050;BMP180;57391;51.306;22.680;2024-02-21T02:22:00;100033.60;;;6.04
70050;BMP180;57391;51.306;22.680;2024-02-21T02:24:06;100028.20;;;6.04
70050;BMP180;57391;51.306;22.680;2024-02-21T02:26:08;100025.60;;;6.04
70050;BMP180;57391;51.306;22.680;2024-02-21T02:28:10;100025.20;;;6.06
70050;BMP180;57391;51.306;22.680;2024-02-21T02:30:12;100027.20;;;6.02
70050;BMP180;57391;51.306;22.680;2024-02-21T02:32:14;100028.20;;;6.06
70050;BMP180;57391;51.306;22.680;2024-02-21T02:34:15;100024.40;;;6.02
70050;BMP180;57391;51.306;22.680;2024-02-21T02:36:17;100021.20;;;6.04
70050;BMP180;57391;51.306;22.680;2024-02-21T02:38:19;100017.80;;;6.02
70050;BMP180;57391;51.306;22.680;2024-02-21T02:40:21;100018.60;;;6.10
70050;BMP180;57391;51.306;22.680;2024-02-21T02:42:23;100018.20;;;6.10
70050;BMP180;57391;51.306;22.680;2024-02-21T02:44:24;100015.80;;;6.10
70050;BMP180;57391;51.306;22.680;2024-02-21T02:46:26;100019.40;;;6.10
70050;BMP180;57391;51.306;22.680;2024-02-21T02:48:28;100018.40;;;6.10
70050;BMP180;57391;51.306;22.680;2024-02-21T02:50:30;100021.20;;;6.10
70050;BMP180;57391;51.306;22.680;2024-02-21T02:52:31;100023.20;;;6.08
70050;BMP180;57391;51.306;22.680;2024-02-21T02:54:33;100025.80;;;6.04
70050;BMP180;57391;51.306;22.680;2024-02-21T02:56:35;100023.00;;;6.04
70050;BMP180;57391;51.306;22.680;2024-02-21T02:58:37;100023.60;;;6.00
70050;BMP180;57391;51.306;22.680;2024-02-21T03:00:39;100022.40;;;6.00
70050;BMP180;57391;51.306;22.680;2024-02-21T03:02:43;100024.80;;;6.00
70050;BMP180;57391;51.306;22.680;2024-02-21T03:04:46;100026.00;;;6.00
70050;BMP180;57391;51.306;22.680;2024-02-21T03:06:48;100024.20;;;6.00
70050;BMP180;57391;51.306;22.680;2024-02-21T03:08:50;100021.60;;;6.00
70050;BMP180;57391;51.306;22.680;2024-02-21T03:10:53;100026.00;;;6.00
70050;BMP180;57391;51.306;22.680;2024-02-21T03:12:55;100025.80;;;6.00
70050;BMP180;57391;51.306;22.680;2024-02-21T03:14:57;100022.80;;;5.92
70050;BMP180;57391;51.306;22.680;2024-02-21T03:16:59;100026.60;;;5.90
70050;BMP180;57391;51.306;22.680;2024-02-21T03:19:00;100025.40;;;5.90
70050;BMP180;57391;51.306;22.680;2024-02-21T03:21:02;100026.60;;;5.90
70050;BMP180;57391;51.306;22.680;2024-02-21T03:23:04;100030.00;;;5.90
70050;BMP180;57391;51.306;22.680;2024-02-21T03:25:08;100022.40;;;5.90
70050;BMP180;57391;51.306;22.680;2024-02-21T03:27:09;100020.00;;;5.90
70050;BMP180;57391;51.306;22.680;2024-02-21T03:29:11;100026.00;;;5.80
70050;BMP180;57391;51.306;22.680;2024-02-21T03:31:13;100029.00;;;5.80
70050;BMP180;57391;51.306;22.680;2024-02-21T03:33:15;100028.80;;;5.80
70050;BMP180;57391;51.306;22.680;2024-02-21T03:35:16;100033.60;;;5.70
70050;BMP180;57391;51.306;22.680;2024-02-21T03:37:18;100031.60;;;5.70
70050;BMP180;57391;51.306;22.680;2024-02-21T03:39:20;100035.40;;;5.70
70050;BMP180;57391;51.306;22.680;2024-02-21T03:41:23;100031.40;;;5.60
70050;BMP180;57391;51.306;22.680;2024-02-21T03:43:24;100029.20;;;5.60
70050;BMP180;57391;51.306;22.680;2024-02-21T03:45:26;100033.20;;;5.60
70050;BMP180;57391;51.306;22.680;2024-02-21T03:47:28;100037.80;;;5.60
70050;BMP180;57391;51.306;22.680;2024-02-21T03:49:29;100032.80;;;5.60
70050;BMP180;57391;51.306;22.680;2024-02-21T03:51:31;100024.40;;;5.58
70050;BMP180;57391;51.306;22.680;2024-02-21T03:53:33;100035.40;;;5.60
70050;BMP180;57391;51.306;22.680;2024-02-21T03:55:35;100034.20;;;5.60
70050;BMP180;57391;51.306;22.680;2024-02-21T03:57:37;100030.60;;;5.60
70050;BMP180;57391;51.306;22.680;2024-02-21T03:59:40;100026.80;;;5.50
70050;BMP180;57391;51.306;22.680;2024-02-21T04:01:41;100023.60;;;5.50
70050;BMP180;57391;51.306;22.680;2024-02-21T04:03:44;100029.40;;;5.50
70050;BMP180;57391;51.306;22.680;2024-02-21T04:05:46;100024.80;;;5.50
70050;BMP180;57391;51.306;22.680;2024-02-21T04:07:47;100031.40;;;5.40
70050;BMP180;57391;51.306;22.680;2024-02-21T04:09:49;100025.20;;;5.40
70050;BMP180;57391;51.306;22.680;2024-02-21T04:11:51;100028.60;;;5.40
70050;BMP180;57391;51.306;22.680;2024-02-21T04:13:53;100028.20;;;5.40
70050;BMP180;57391;51.306;22.680;2024-02-21T04:15:55;100023.20;;;5.40
70050;BMP180;57391;51.306;22.680;2024-02-21T04:17:56;100022.00;;;5.38
70050;BMP180;57391;51.306;22.680;2024-02-21T04:20:04;100025.20;;;5.38
70050;BMP180;57391;51.306;22.680;2024-02-21T04:22:12;100024.40;;;5.40
70050;BMP180;57391;51.306;22.680;2024-02-21T04:24:14;100016.00;;;5.40
70050;BMP180;57391;51.306;22.680;2024-02-21T04:26:15;100023.00;;;5.40
70050;BMP180;57391;51.306;22.680;2024-02-21T04:28:17;100019.60;;;5.40
70050;BMP180;57391;51.306;22.680;2024-02-21T04:30:19;100024.20;;;5.40
70050;BMP180;57391;51.306;22.680;2024-02-21T04:32:21;100024.20;;;5.40
70050;BMP180;57391;51.306;22.680;2024-02-21T04:34:22;100021.60;;;5.40
70050;BMP180;57391;51.306;22.680;2024-02-21T04:36:24;100015.00;;;5.40
70050;BMP180;57391;51.306;22.680;2024-02-21T04:38:26;100015.40;;;5.40
70050;BMP180;57391;51.306;22.680;2024-02-21T04:40:30;100016.20;;;5.40
70050;BMP180;57391;51.306;22.680;2024-02-21T04:42:32;100019.60;;;5.40
70050;BMP180;57391;51.306;22.680;2024-02-21T04:44:34;100018.00;;;5.40
70050;BMP180;57391;51.306;22.680;2024-02-21T04:46:36;100020.00;;;5.40
70050;BMP180;57391;51.306;22.680;2024-02-21T04:48:37;100018.00;;;5.40
70050;BMP180;57391;51.306;22.680;2024-02-21T04:50:39;100018.20;;;5.44
70050;BMP180;57391;51.306;22.680;2024-02-21T04:52:43;100010.80;;;5.50
70050;BMP180;57391;51.306;22.680;2024-02-21T04:54:45;100010.20;;;5.50
70050;BMP180;57391;51.306;22.680;2024-02-21T04:56:46;100013.00;;;5.50
70050;BMP180;57391;51.306;22.680;2024-02-21T04:58:48;100012.80;;;5.50
70050;BMP180;57391;51.306;22.680;2024-02-21T05:00:50;100012.40;;;5.52
70050;BMP180;57391;51.306;22.680;2024-02-21T05:02:52;100013.80;;;5.58
70050;BMP180;57391;51.306;22.680;2024-02-21T05:04:54;100015.40;;;5.60
70050;BMP180;57391;51.306;22.680;2024-02-21T05:06:55;100016.40;;;5.60
70050;BMP180;57391;51.306;22.680;2024-02-21T05:08:58;100019.60;;;5.60
70050;BMP180;57391;51.306;22.680;2024-02-21T05:11:00;100021.80;;;5.60
70050;BMP180;57391;51.306;22.680;2024-02-21T05:13:02;100018.60;;;5.60
70050;BMP180;57391;51.306;22.680;2024-02-21T05:15:05;100017.60;;;5.60
70050;BMP180;57391;51.306;22.680;2024-02-21T05:17:06;100013.00;;;5.60
70050;BMP180;57391;51.306;22.680;2024-02-21T05:19:08;100013.20;;;5.60
70050;BMP180;57391;51.306;22.680;2024-02-21T05:21:10;100013.00;;;5.60
70050;BMP180;57391;51.306;22.680;2024-02-21T05:23:11;100015.40;;;5.60
70050;BMP180;57391;51.306;22.680;2024-02-21T05:25:13;100022.60;;;5.60
70050;BMP180;57391;51.306;22.680;2024-02-21T05:27:15;100018.40;;;5.60
70050;BMP180;57391;51.306;22.680;2024-02-21T05:29:17;100017.80;;;5.60
70050;BMP180;57391;51.306;22.680;2024-02-21T05:31:19;100021.60;;;5.60
70050;BMP180;57391;51.306;22.680;2024-02-21T05:33:22;100019.40;;;5.60
70050;BMP180;57391;51.306;22.680;2024-02-21T05:35:29;100019.80;;;5.60
70050;BMP180;57391;51.306;22.680;2024-02-21T05:37:30;100017.80;;;5.60
70050;BMP180;57391;51.306;22.680;2024-02-21T05:39:32;100020.00;;;5.60
70050;BMP180;57391;51.306;22.680;2024-02-21T05:41:34;100024.00;;;5.60
70050;BMP180;57391;51.306;22.680;2024-02-21T05:43:36;100025.00;;;5.60
70050;BMP180;57391;51.306;22.680;2024-02-21T05:45:37;100018.60;;;5.58
70050;BMP180;57391;51.306;22.680;2024-02-21T05:47:39;100022.20;;;5.52
70050;BMP180;57391;51.306;22.680;2024-02-21T05:49:41;100022.20;;;5.50
70050;BMP180;57391;51.306;22.680;2024-02-21T05:51:43;100017.40;;;5.50
70050;BMP180;57391;51.306;22.680;2024-02-21T05:53:45;100014.40;;;5.50
70050;BMP180;57391;51.306;22.680;2024-02-21T05:55:46;100013.20;;;5.56
70050;BMP180;57391;51.306;22.680;2024-02-21T05:57:49;100011.00;;;5.60
70050;BMP180;57391;51.306;22.680;2024-02-21T05:59:50;100009.80;;;5.58
70050;BMP180;57391;51.306;22.680;2024-02-21T06:01:59;100011.20;;;5.56
70050;BMP180;57391;51.306;22.680;2024-02-21T06:04:00;100021.40;;;5.60
70050;BMP180;57391;51.306;22.680;2024-02-21T06:06:03;100018.80;;;5.60
70050;BMP180;57391;51.306;22.680;2024-02-21T06:08:06;100017.00;;;5.60
70050;BMP180;57391;51.306;22.680;2024-02-21T06:10:09;100015.40;;;5.60
70050;BMP180;57391;51.306;22.680;2024-02-21T06:12:11;100014.00;;;5.60
70050;BMP180;57391;51.306;22.680;2024-02-21T06:14:12;100018.00;;;5.60
70050;BMP180;57391;51.306;22.680;2024-02-21T06:16:15;100009.00;;;5.60
70050;BMP180;57391;51.306;22.680;2024-02-21T06:18:18;100009.80;;;5.60
70050;BMP180;57391;51.306;22.680;2024-02-21T06:20:20;100016.40;;;5.60
70050;BMP180;57391;51.306;22.680;2024-02-21T06:22:22;100010.60;;;5.60
70050;BMP180;57391;51.306;22.680;2024-02-21T06:24:23;100008.00;;;5.60
70050;BMP180;57391;51.306;22.680;2024-02-21T06:26:25;100007.80;;;5.60
70050;BMP180;57391;51.306;22.680;2024-02-21T06:28:27;100008.40;;;5.60
70050;BMP180;57391;51.306;22.680;2024-02-21T06:30:29;100008.40;;;5.70
70050;BMP180;57391;51.306;22.680;2024-02-21T06:32:30;100007.80;;;5.80
70050;BMP180;57391;51.306;22.680;2024-02-21T06:34:32;100013.40;;;5.90
70050;BMP180;57391;51.306;22.680;2024-02-21T06:36:34;100012.00;;;6.00
70050;BMP180;57391;51.306;22.680;2024-02-21T06:38:36;100012.80;;;6.00
70050;BMP180;57391;51.306;22.680;2024-02-21T06:40:37;100015.00;;;6.00
70050;BMP180;57391;51.306;22.680;2024-02-21T06:42:42;100017.40;;;6.08
70050;BMP180;57391;51.306;22.680;2024-02-21T06:44:46;100020.80;;;6.10
70050;BMP180;57391;51.306;22.680;2024-02-21T06:46:48;100019.00;;;6.10
70050;BMP180;57391;51.306;22.680;2024-02-21T06:48:50;100015.20;;;6.10
70050;BMP180;57391;51.306;22.680;2024-02-21T06:50:51;100014.20;;;6.18
70050;BMP180;57391;51.306;22.680;2024-02-21T06:52:53;100015.80;;;6.20
70050;BMP180;57391;51.306;22.680;2024-02-21T06:54:55;100017.40;;;6.20
70050;BMP180;57391;51.306;22.680;2024-02-21T06:56:57;100015.40;;;6.20
70050;BMP180;57391;51.306;22.680;2024-02-21T06:58:58;100016.60;;;6.20
70050;BMP180;57391;51.306;22.680;2024-02-21T07:01:00;100017.60;;;6.20
70050;BMP180;57391;51.306;22.680;2024-02-21T07:03:02;100019.80;;;6.20
70050;BMP180;57391;51.306;22.680;2024-02-21T07:05:04;100025.00;;;6.20
70050;BMP180;57391;51.306;22.680;2024-02-21T07:07:06;100018.00;;;6.20
70050;BMP180;57391;51.306;22.680;2024-02-21T07:09:08;100020.80;;;6.20
70050;BMP180;57391;51.306;22.680;2024-02-21T07:11:10;100022.80;;;6.28
70050;BMP180;57391;51.306;22.680;2024-02-21T07:13:12;100023.40;;;6.30
70050;BMP180;57391;51.306;22.680;2024-02-21T07:15:15;100017.60;;;6.30
70050;BMP180;57391;51.306;22.680;2024-02-21T07:17:16;100019.80;;;6.30
70050;BMP180;57391;51.306;22.680;2024-02-21T07:19:18;100015.20;;;6.30
70050;BMP180;57391;51.306;22.680;2024-02-21T07:21:20;100016.60;;;6.30
70050;BMP180;57391;51.306;22.680;2024-02-21T07:23:21;100016.80;;;6.30
70050;BMP180;57391;51.306;22.680;2024-02-21T07:25:23;100018.20;;;6.30
70050;BMP180;57391;51.306;22.680;2024-02-21T07:27:25;100022.80;;;6.30
70050;BMP180;57391;51.306;22.680;2024-02-21T07:29:30;100019.20;;;6.38
70050;BMP180;57391;51.306;22.680;2024-02-21T07:33:08;100014.60;;;6.38
70050;BMP180;57391;51.306;22.680;2024-02-21T07:36:46;100017.40;;;6.40
70050;BMP180;57391;51.306;22.680;2024-02-21T07:40:24;100012.40;;;6.40
70050;BMP180;57391;51.306;22.680;2024-02-21T07:42:33;100012.80;;;6.40
70050;BMP180;57391;51.306;22.680;2024-02-21T07:44:47;100011.80;;;6.40
70050;BMP180;57391;51.306;22.680;2024-02-21T07:46:53;100011.80;;;6.40
70050;BMP180;57391;51.306;22.680;2024-02-21T07:49:08;100010.20;;;6.42
70050;BMP180;57391;51.306;22.680;2024-02-21T07:51:10;100009.00;;;6.50
70050;BMP180;57391;51.306;22.680;2024-02-21T07:53:15;100004.60;;;6.50
70050;BMP180;57391;51.306;22.680;2024-02-21T07:55:24;100009.20;;;6.60
70050;BMP180;57391;51.306;22.680;2024-02-21T07:57:30;100007.60;;;6.70
70050;BMP180;57391;51.306;22.680;2024-02-21T07:59:40;100007.60;;;6.80
70050;BMP180;57391;51.306;22.680;2024-02-21T08:01:56;100004.20;;;6.80
70050;BMP180;57391;51.306;22.680;2024-02-21T08:04:05;100004.40;;;6.88
70050;BMP180;57391;51.306;22.680;2024-02-21T08:06:21;100005.60;;;6.90
70050;BMP180;57391;51.306;22.680;2024-02-21T08:19:04;100007.60;;;7.70
70050;BMP180;57391;51.306;22.680;2024-02-21T08:21:06;100008.40;;;7.90
70050;BMP180;57391;51.306;22.680;2024-02-21T08:23:08;100005.00;;;7.80
70050;BMP180;57391;51.306;22.680;2024-02-21T08:25:10;100007.80;;;7.80
70050;BMP180;57391;51.306;22.680;2024-02-21T08:27:12;100001.00;;;7.70
70050;BMP180;57391;51.306;22.680;2024-02-21T08:29:13;100002.40;;;7.70
70050;BMP180;57391;51.306;22.680;2024-02-21T08:31:21;100000.40;;;7.62
70050;BMP180;57391;51.306;22.680;2024-02-21T08:33:24;100002.80;;;7.60
70050;BMP180;57391;51.306;22.680;2024-02-21T08:35:26;100000.40;;;7.60
70050;BMP180;57391;51.306;22.680;2024-02-21T08:37:28;100000.40;;;7.60
70050;BMP180;57391;51.306;22.680;2024-02-21T08:39:30;99997.40;;;7.60
70050;BMP180;57391;51.306;22.680;2024-02-21T08:41:33;100003.40;;;7.60
70050;BMP180;57391;51.306;22.680;2024-02-21T08:43:35;100002.60;;;7.60
70050;BMP180;57391;51.306;22.680;2024-02-21T08:45:37;99998.60;;;7.60
70050;BMP180;57391;51.306;22.680;2024-02-21T08:47:39;99996.80;;;7.60
70050;BMP180;57391;51.306;22.680;2024-02-21T08:49:42;99994.20;;;7.60
70050;BMP180;57391;51.306;22.680;2024-02-21T08:51:43;99992.40;;;7.60
70050;BMP180;57391;51.306;22.680;2024-02-21T09:03:40;99990.00;;;7.60
70050;BMP180;57391;51.306;22.680;2024-02-21T09:05:42;99988.20;;;7.60
70050;BMP180;57391;51.306;22.680;2024-02-21T09:07:44;99990.00;;;7.60
70050;BMP180;57391;51.306;22.680;2024-02-21T09:09:45;99992.40;;;7.62
70050;BMP180;57391;51.306;22.680;2024-02-21T09:11:47;99990.00;;;7.70
70050;BMP180;57391;51.306;22.680;2024-02-21T09:13:49;99984.80;;;7.70
70050;BMP180;57391;51.306;22.680;2024-02-21T09:15:51;99983.40;;;7.80
70050;BMP180;57391;51.306;22.680;2024-02-21T09:17:52;99985.40;;;7.80
70050;BMP180;57391;51.306;22.680;2024-02-21T09:19:54;99980.80;;;7.80
70050;BMP180;57391;51.306;22.680;2024-02-21T09:21:57;99986.00;;;7.86
70050;BMP180;57391;51.306;22.680;2024-02-21T09:23:59;99989.80;;;7.90
70050;BMP180;57391;51.306;22.680;2024-02-21T09:26:00;99987.80;;;7.90
70050;BMP180;57391;51.306;22.680;2024-02-21T09:28:05;99984.00;;;8.00
70050;BMP180;57391;51.306;22.680;2024-02-21T09:30:08;99984.40;;;8.00
70050;BMP180;57391;51.306;22.680;2024-02-21T09:32:09;99980.60;;;8.10
70050;BMP180;57391;51.306;22.680;2024-02-21T09:34:11;99981.20;;;8.20
70050;BMP180;57391;51.306;22.680;2024-02-21T09:36:13;99981.60;;;8.30
70050;BMP180;57391;51.306;22.680;2024-02-21T09:38:15;99984.40;;;8.30
70050;BMP180;57391;51.306;22.680;2024-02-21T09:40:17;99988.80;;;8.30
70050;BMP180;57391;51.306;22.680;2024-02-21T09:42:21;99988.40;;;8.30
70050;BMP180;57391;51.306;22.680;2024-02-21T09:44:36;99986.00;;;8.30
70050;BMP180;57391;51.306;22.680;2024-02-21T09:47:03;99981.20;;;8.36
70050;BMP180;57391;51.306;22.680;2024-02-21T09:49:32;99980.40;;;8.38
70050;BMP180;57391;51.306;22.680;2024-02-21T09:51:36;99974.80;;;8.40
70050;BMP180;57391;51.306;22.680;2024-02-21T09:53:38;99972.00;;;8.40
70050;BMP180;57391;51.306;22.680;2024-02-21T09:55:41;99971.20;;;8.50
70050;BMP180;57391;51.306;22.680;2024-02-21T09:57:44;99963.60;;;8.50
70050;BMP180;57391;51.306;22.680;2024-02-21T09:59:46;99969.80;;;8.58
70050;BMP180;57391;51.306;22.680;2024-02-21T10:01:48;99979.60;;;8.60
70050;BMP180;57391;51.306;22.680;2024-02-21T10:03:51;99976.40;;;8.60
70050;BMP180;57391;51.306;22.680;2024-02-21T10:05:53;99976.20;;;8.60
70050;BMP180;57391;51.306;22.680;2024-02-21T10:07:55;99979.40;;;8.60
70050;BMP180;57391;51.306;22.680;2024-02-21T10:10:04;99974.80;;;8.60
70050;BMP180;57391;51.306;22.680;2024-02-21T10:12:11;99977.80;;;8.60
70050;BMP180;57391;51.306;22.680;2024-02-21T10:14:13;99975.80;;;8.60
70050;BMP180;57391;51.306;22.680;2024-02-21T10:16:17;99975.40;;;8.60
70050;BMP180;57391;51.306;22.680;2024-02-21T10:18:18;99970.60;;;8.60
70050;BMP180;57391;51.306;22.680;2024-02-21T10:20:20;99971.60;;;8.60
70050;BMP180;57391;51.306;22.680;2024-02-21T10:22:22;99970.40;;;8.60
70050;BMP180;57391;51.306;22.680;2024-02-21T10:24:27;99972.60;;;8.60
70050;BMP180;57391;51.306;22.680;2024-02-21T10:26:31;99965.80;;;8.52
70050;BMP180;57391;51.306;22.680;2024-02-21T10:28:33;99966.40;;;8.50
70050;BMP180;57391;51.306;22.680;2024-02-21T10:30:34;99968.60;;;8.50
70050;BMP180;57391;51.306;22.680;2024-02-21T10:32:36;99964.40;;;8.40
70050;BMP180;57391;51.306;22.680;2024-02-21T10:34:40;99962.00;;;8.40
70050;BMP180;57391;51.306;22.680;2024-02-21T10:36:43;99962.20;;;8.40
70050;BMP180;57391;51.306;22.680;2024-02-21T10:38:45;99962.60;;;8.40
70050;BMP180;57391;51.306;22.680;2024-02-21T10:40:48;99962.60;;;8.40
70050;BMP180;57391;51.306;22.680;2024-02-21T10:43:01;99958.40;;;8.40
70050;BMP180;57391;51.306;22.680;2024-02-21T10:45:07;99956.40;;;8.50
70050;BMP180;57391;51.306;22.680;2024-02-21T10:47:11;99961.40;;;8.50
70050;BMP180;57391;51.306;22.680;2024-02-21T10:49:23;99961.40;;;8.50
70050;BMP180;57391;51.306;22.680;2024-02-21T10:51:33;99961.80;;;8.54
70050;BMP180;57391;51.306;22.680;2024-02-21T10:55:13;99962.60;;;8.50
70050;BMP180;57391;51.306;22.680;2024-02-21T10:56:43;99966.80;;;8.50
70050;BMP180;57391;51.306;22.680;2024-02-21T10:58:46;99961.80;;;8.46
70050;BMP180;57391;51.306;22.680;2024-02-21T11:00:50;99963.80;;;8.50
70050;BMP180;57391;51.306;22.680;2024-02-21T11:02:52;99963.40;;;8.50
70050;BMP180;57391;51.306;22.680;2024-02-21T11:04:55;99960.00;;;8.50
70050;BMP180;57391;51.306;22.680;2024-02-21T11:06:57;99956.60;;;8.50
70050;BMP180;57391;51.306;22.680;2024-02-21T11:09:10;99952.80;;;8.50
70050;BMP180;57391;51.306;22.680;2024-02-21T11:21:01;99929.80;;;8.50
70050;BMP180;57391;51.306;22.680;2024-02-21T11:23:04;99926.60;;;8.50
70050;BMP180;57391;51.306;22.680;2024-02-21T11:25:07;99928.60;;;8.60
70050;BMP180;57391;51.306;22.680;2024-02-21T11:27:14;99927.40;;;8.60
70050;BMP180;57391;51.306;22.680;2024-02-21T11:29:26;99924.00;;;8.60
70050;BMP180;57391;51.306;22.680;2024-02-21T11:31:43;99925.40;;;8.70
70050;BMP180;57391;51.306;22.680;2024-02-21T11:33:47;99915.00;;;8.70
70050;BMP180;57391;51.306;22.680;2024-02-21T11:35:49;99913.40;;;8.72
70050;BMP180;57391;51.306;22.680;2024-02-21T11:37:50;99911.20;;;8.80
70050;BMP180;57391;51.306;22.680;2024-02-21T11:39:52;99908.60;;;8.90
70050;BMP180;57391;51.306;22.680;2024-02-21T11:42:05;99910.00;;;9.00
70050;BMP180;57391;51.306;22.680;2024-02-21T11:44:07;99904.80;;;9.00
70050;BMP180;57391;51.306;22.680;2024-02-21T11:55:58;99892.80;;;9.48
70050;BMP180;57391;51.306;22.680;2024-02-21T11:58:00;99885.20;;;9.50
70050;BMP180;57391;51.306;22.680;2024-02-21T12:00:19;99878.00;;;9.60
70050;BMP180;57391;51.306;22.680;2024-02-21T12:02:26;99878.60;;;9.60
70050;BMP180;57391;51.306;22.680;2024-02-21T12:04:29;99877.40;;;9.70
70050;BMP180;57391;51.306;22.680;2024-02-21T12:06:33;99886.80;;;9.80
70050;BMP180;57391;51.306;22.680;2024-02-21T12:08:44;99885.00;;;9.80
70050;BMP180;57391;51.306;22.680;2024-02-21T12:21:05;99860.20;;;9.94
70050;BMP180;57391;51.306;22.680;2024-02-21T12:23:10;99858.80;;;9.98
70050;BMP180;57391;51.306;22.680;2024-02-21T12:25:22;99855.60;;;10.02
70050;BMP180;57391;51.306;22.680;2024-02-21T12:27:25;99852.80;;;10.16
70050;BMP180;57391;51.306;22.680;2024-02-21T12:29:28;99844.20;;;10.20
70050;BMP180;57391;51.306;22.680;2024-02-21T12:31:31;99845.40;;;10.22
70050;BMP180;57391;51.306;22.680;2024-02-21T12:33:33;99841.80;;;10.30
70050;BMP180;57391;51.306;22.680;2024-02-21T12:35:35;99838.00;;;10.38
70050;BMP180;57391;51.306;22.680;2024-02-21T12:37:36;99835.00;;;10.40